sensor_id;sensor_type;location;lat;lon;timestamp;P1;durP1;ratioP1;P2;durP2;ratioP2
35648;SDS011;21768;48.562;13.414;2024-03-08T00:02:23;30.58;;;13.65;;
35648;SDS011;21768;48.562;13.414;2024-03-08T00:04:49;29.90;;;13.05;;
35648;SDS011;21768;48.562;13.414;2024-03-08T00:07:15;33.45;;;13.68;;
35648;SDS011;21768;48.562;13.414;2024-03-08T00:09:41;29.92;;;13.30;;
35648;SDS011;21768;48.562;13.414;2024-03-08T00:12:06;27.30;;;12.68;;
35648;SDS011;21768;48.562;13.414;2024-03-08T00:14:32;28.70;;;13.25;;
35648;SDS011;21768;48.562;13.414;2024-03-08T00:16:58;32.20;;;13.70;;
35648;SDS011;21768;48.562;13.414;2024-03-08T00:19:23;25.35;;;12.40;;
35648;SDS011;21768;48.562;13.414;2024-03-08T00:21:49;32.35;;;13.85;;
35648;SDS011;21768;48.562;13.414;2024-03-08T00:24:15;31.73;;;13.45;;
35648;SDS011;21768;48.562;13.414;2024-03-08T00:26:41;24.60;;;12.98;;
35648;SDS011;21768;48.562;13.414;2024-03-08T00:29:08;28.60;;;13.23;;
35648;SDS011;21768;48.562;13.414;2024-03-08T00:31:33;31.02;;;13.23;;
35648;SDS011;21768;48.562;13.414;2024-03-08T00:34:00;27.98;;;13.35;;
35648;SDS011;21768;48.562;13.414;2024-03-08T00:36:26;29.73;;;13.05;;
35648;SDS011;21768;48.562;13.414;2024-03-08T00:38:51;34.42;;;13.93;;
35648;SDS011;21768;48.562;13.414;2024-03-08T00:41:17;33.10;;;13.70;;
35648;SDS011;21768;48.562;13.414;2024-03-08T00:43:43;29.00;;;13.82;;
35648;SDS011;21768;48.562;13.414;2024-03-08T00:46:08;34.50;;;14.23;;
35648;SDS011;21768;48.562;13.414;2024-03-08T00:48:34;32.90;;;13.80;;
35648;SDS011;21768;48.562;13.414;2024-03-08T00:50:59;26.83;;;12.85;;
35648;SDS011;21768;48.562;13.414;2024-03-08T00:53:27;25.40;;;12.85;;
35648;SDS011;21768;48.562;13.414;2024-03-08T00:55:52;33.97;;;13.85;;
35648;SDS011;21768;48.562;13.414;2024-03-08T00:58:18;29.83;;;13.45;;
35648;SDS011;21768;48.562;13.414;2024-03-08T01:00:44;30.02;;;12.75;;
35648;SDS011;21768;48.562;13.414;2024-03-08T01:03:10;32.50;;;13.20;;
35648;SDS011;21768;48.562;13.414;2024-03-08T01:05:35;27.90;;;13.27;;
35648;SDS011;21768;48.562;13.414;2024-03-08T01:08:01;28.25;;;12.95;;
35648;SDS011;21768;48.562;13.414;2024-03-08T01:10:28;32.53;;;14.48;;
35648;SDS011;21768;48.562;13.414;2024-03-08T01:12:54;34.60;;;14.65;;
35648;SDS011;21768;48.562;13.414;2024-03-08T01:15:22;24.83;;;13.68;;
35648;SDS011;21768;48.562;13.414;2024-03-08T01:17:48;31.00;;;14.05;;
35648;SDS011;21768;48.562;13.414;2024-03-08T01:20:13;35.45;;;14.07;;
35648;SDS011;21768;48.562;13.414;2024-03-08T01:22:40;33.42;;;15.70;;
35648;SDS011;21768;48.562;13.414;2024-03-08T01:25:05;36.80;;;15.27;;
35648;SDS011;21768;48.562;13.414;2024-03-08T01:27:31;32.47;;;14.13;;
35648;SDS011;21768;48.562;13.414;2024-03-08T01:29:57;30.42;;;14.05;;
35648;SDS011;21768;48.562;13.414;2024-03-08T01:32:24;31.90;;;14.50;;
35648;SDS011;21768;48.562;13.414;2024-03-08T01:34:50;40.45;;;15.82;;
35648;SDS011;21768;48.562;13.414;2024-03-08T01:37:15;37.70;;;15.88;;
35648;SDS011;21768;48.562;13.414;2024-03-08T01:39:41;70.05;;;28.23;;
35648;SDS011;21768;48.562;13.414;2024-03-08T01:42:07;37.47;;;15.80;;
35648;SDS011;21768;48.562;13.414;2024-03-08T01:44:32;33.03;;;15.57;;
35648;SDS011;21768;48.562;13.414;2024-03-08T01:46:58;37.53;;;15.90;;
35648;SDS011;21768;48.562;13.414;2024-03-08T01:49:24;40.58;;;17.80;;
35648;SDS011;21768;48.562;13.414;2024-03-08T01:51:51;33.90;;;15.05;;
35648;SDS011;21768;48.562;13.414;2024-03-08T01:54:18;36.25;;;14.43;;
35648;SDS011;21768;48.562;13.414;2024-03-08T01:56:45;37.10;;;15.38;;
35648;SDS011;21768;48.562;13.414;2024-03-08T01:59:11;37.00;;;14.93;;
35648;SDS011;21768;48.562;13.414;2024-03-08T02:01:39;32.78;;;14.32;;
35648;SDS011;21768;48.562;13.414;2024-03-08T02:04:04;30.90;;;14.32;;
35648;SDS011;21768;48.562;13.414;2024-03-08T02:06:32;32.28;;;14.65;;
35648;SDS011;21768;48.562;13.414;2024-03-08T02:08:58;33.30;;;14.38;;
35648;SDS011;21768;48.562;13.414;2024-03-08T02:11:24;29.67;;;14.43;;
35648;SDS011;21768;48.562;13.414;2024-03-08T02:13:50;33.10;;;14.13;;
35648;SDS011;21768;48.562;13.414;2024-03-08T02:16:22;33.60;;;14.20;;
35648;SDS011;21768;48.562;13.414;2024-03-08T02:18:47;35.30;;;14.82;;
35648;SDS011;21768;48.562;13.414;2024-03-08T02:21:13;29.65;;;13.27;;
35648;SDS011;21768;48.562;13.414;2024-03-08T02:23:46;31.30;;;14.25;;
35648;SDS011;21768;48.562;13.414;2024-03-08T02:26:12;32.65;;;14.13;;
35648;SDS011;21768;48.562;13.414;2024-03-08T02:28:37;42.33;;;15.55;;
35648;SDS011;21768;48.562;13.414;2024-03-08T02:31:03;30.38;;;14.38;;
35648;SDS011;21768;48.562;13.414;2024-03-08T02:33:33;32.28;;;14.52;;
35648;SDS011;21768;48.562;13.414;2024-03-08T02:35:58;34.92;;;14.07;;
35648;SDS011;21768;48.562;13.414;2024-03-08T02:38:24;37.45;;;14.90;;
35648;SDS011;21768;48.562;13.414;2024-03-08T02:40:50;33.13;;;13.95;;
35648;SDS011;21768;48.562;13.414;2024-03-08T02:43:17;34.22;;;14.70;;
35648;SDS011;21768;48.562;13.414;2024-03-08T02:45:44;38.40;;;14.70;;
35648;SDS011;21768;48.562;13.414;2024-03-08T02:48:13;30.40;;;13.70;;
35648;SDS011;21768;48.562;13.414;2024-03-08T02:50:40;34.95;;;14.50;;
35648;SDS011;21768;48.562;13.414;2024-03-08T02:53:07;35.20;;;14.73;;
35648;SDS011;21768;48.562;13.414;2024-03-08T02:55:33;33.88;;;14.68;;
35648;SDS011;21768;48.562;13.414;2024-03-08T02:58:04;31.15;;;13.65;;
35648;SDS011;21768;48.562;13.414;2024-03-08T03:00:30;30.10;;;14.80;;
35648;SDS011;21768;48.562;13.414;2024-03-08T03:02:59;32.75;;;14.10;;
35648;SDS011;21768;48.562;13.414;2024-03-08T03:05:28;29.08;;;13.15;;
35648;SDS011;21768;48.562;13.414;2024-03-08T03:07:55;32.65;;;14.18;;
35648;SDS011;21768;48.562;13.414;2024-03-08T03:10:21;34.47;;;14.45;;
35648;SDS011;21768;48.562;13.414;2024-03-08T03:12:47;36.55;;;13.80;;
35648;SDS011;21768;48.562;13.414;2024-03-08T03:15:16;34.47;;;14.63;;
35648;SDS011;21768;48.562;13.414;2024-03-08T03:17:49;34.97;;;14.07;;
35648;SDS011;21768;48.562;13.414;2024-03-08T03:20:18;32.20;;;13.77;;
35648;SDS011;21768;48.562;13.414;2024-03-08T03:22:57;37.70;;;15.90;;
35648;SDS011;21768;48.562;13.414;2024-03-08T03:25:26;31.30;;;13.68;;
35648;SDS011;21768;48.562;13.414;2024-03-08T03:27:54;33.00;;;13.50;;
35648;SDS011;21768;48.562;13.414;2024-03-08T03:30:23;29.70;;;12.95;;
35648;SDS011;21768;48.562;13.414;2024-03-08T03:32:51;30.98;;;13.70;;
35648;SDS011;21768;48.562;13.414;2024-03-08T03:35:17;32.67;;;13.93;;
35648;SDS011;21768;48.562;13.414;2024-03-08T03:37:43;29.63;;;12.93;;
35648;SDS011;21768;48.562;13.414;2024-03-08T03:40:26;33.92;;;13.85;;
35648;SDS011;21768;48.562;13.414;2024-03-08T03:42:53;29.73;;;13.13;;
35648;SDS011;21768;48.562;13.414;2024-03-08T03:45:18;33.50;;;13.73;;
35648;SDS011;21768;48.562;13.414;2024-03-08T03:47:45;28.95;;;12.73;;
35648;SDS011;21768;48.562;13.414;2024-03-08T03:50:11;33.08;;;13.57;;
35648;SDS011;21768;48.562;13.414;2024-03-08T03:52:37;29.23;;;12.70;;
35648;SDS011;21768;48.562;13.414;2024-03-08T03:55:02;35.55;;;14.05;;
35648;SDS011;21768;48.562;13.414;2024-03-08T03:57:29;28.60;;;12.13;;
35648;SDS011;21768;48.562;13.414;2024-03-08T03:59:55;32.05;;;13.23;;
35648;SDS011;21768;48.562;13.414;2024-03-08T04:02:23;35.42;;;13.07;;
35648;SDS011;21768;48.562;13.414;2024-03-08T04:04:51;33.22;;;13.70;;
35648;SDS011;21768;48.562;13.414;2024-03-08T04:07:17;33.35;;;14.10;;
35648;SDS011;21768;48.562;13.414;2024-03-08T04:09:43;38.65;;;14.70;;
35648;SDS011;21768;48.562;13.414;2024-03-08T04:12:09;35.20;;;13.80;;
35648;SDS011;21768;48.562;13.414;2024-03-08T04:14:35;35.08;;;13.77;;
35648;SDS011;21768;48.562;13.414;2024-03-08T04:17:01;35.92;;;13.70;;
35648;SDS011;21768;48.562;13.414;2024-03-08T04:19:27;33.05;;;14.23;;
35648;SDS011;21768;48.562;13.414;2024-03-08T04:21:53;32.72;;;13.60;;
35648;SDS011;21768;48.562;13.414;2024-03-08T04:24:18;31.67;;;13.88;;
35648;SDS011;21768;48.562;13.414;2024-03-08T04:26:45;33.92;;;13.73;;
35648;SDS011;21768;48.562;13.414;2024-03-08T04:29:12;34.85;;;14.57;;
35648;SDS011;21768;48.562;13.414;2024-03-08T04:31:40;30.48;;;12.68;;
35648;SDS011;21768;48.562;13.414;2024-03-08T04:34:05;34.35;;;13.95;;
35648;SDS011;21768;48.562;13.414;2024-03-08T04:36:31;35.03;;;14.80;;
35648;SDS011;21768;48.562;13.414;2024-03-08T04:38:56;34.55;;;13.38;;
35648;SDS011;21768;48.562;13.414;2024-03-08T04:41:22;33.33;;;13.40;;
35648;SDS011;21768;48.562;13.414;2024-03-08T04:43:48;36.78;;;14.60;;
35648;SDS011;21768;48.562;13.414;2024-03-08T04:46:14;36.38;;;14.95;;
35648;SDS011;21768;48.562;13.414;2024-03-08T04:48:41;30.35;;;12.93;;
35648;SDS011;21768;48.562;13.414;2024-03-08T04:51:08;35.63;;;14.48;;
35648;SDS011;21768;48.562;13.414;2024-03-08T04:53:34;30.25;;;14.18;;
35648;SDS011;21768;48.562;13.414;2024-03-08T04:56:01;37.13;;;13.88;;
35648;SDS011;21768;48.562;13.414;2024-03-08T04:58:31;35.33;;;13.25;;
35648;SDS011;21768;48.562;13.414;2024-03-08T05:01:03;34.33;;;14.05;;
35648;SDS011;21768;48.562;13.414;2024-03-08T05:03:28;36.33;;;13.85;;
35648;SDS011;21768;48.562;13.414;2024-03-08T05:05:55;38.20;;;15.32;;
35648;SDS011;21768;48.562;13.414;2024-03-08T05:08:21;34.58;;;14.02;;
35648;SDS011;21768;48.562;13.414;2024-03-08T05:10:46;38.50;;;14.40;;
35648;SDS011;21768;48.562;13.414;2024-03-08T05:13:12;35.38;;;13.93;;
35648;SDS011;21768;48.562;13.414;2024-03-08T05:15:38;33.83;;;13.95;;
35648;SDS011;21768;48.562;13.414;2024-03-08T05:18:04;37.33;;;14.95;;
35648;SDS011;21768;48.562;13.414;2024-03-08T05:20:30;36.47;;;14.98;;
35648;SDS011;21768;48.562;13.414;2024-03-08T05:22:56;38.50;;;14.82;;
35648;SDS011;21768;48.562;13.414;2024-03-08T05:25:23;35.70;;;14.32;;
35648;SDS011;21768;48.562;13.414;2024-03-08T05:27:49;36.35;;;14.98;;
35648;SDS011;21768;48.562;13.414;2024-03-08T05:30:15;33.80;;;13.75;;
35648;SDS011;21768;48.562;13.414;2024-03-08T05:32:41;33.53;;;13.75;;
35648;SDS011;21768;48.562;13.414;2024-03-08T05:35:10;39.92;;;14.23;;
35648;SDS011;21768;48.562;13.414;2024-03-08T05:37:37;34.90;;;14.40;;
35648;SDS011;21768;48.562;13.414;2024-03-08T05:40:03;32.35;;;14.45;;
35648;SDS011;21768;48.562;13.414;2024-03-08T05:42:33;32.58;;;13.68;;
35648;SDS011;21768;48.562;13.414;2024-03-08T05:45:01;33.83;;;14.18;;
35648;SDS011;21768;48.562;13.414;2024-03-08T05:47:27;40.17;;;14.98;;
35648;SDS011;21768;48.562;13.414;2024-03-08T05:49:52;36.35;;;14.63;;
35648;SDS011;21768;48.562;13.414;2024-03-08T05:52:18;35.70;;;13.80;;
35648;SDS011;21768;48.562;13.414;2024-03-08T05:54:44;41.08;;;14.40;;
35648;SDS011;21768;48.562;13.414;2024-03-08T05:57:10;38.00;;;14.85;;
35648;SDS011;21768;48.562;13.414;2024-03-08T05:59:36;30.25;;;13.88;;
35648;SDS011;21768;48.562;13.414;2024-03-08T06:02:02;42.00;;;14.98;;
35648;SDS011;21768;48.562;13.414;2024-03-08T06:04:28;36.15;;;14.82;;
35648;SDS011;21768;48.562;13.414;2024-03-08T06:06:54;41.33;;;14.93;;
35648;SDS011;21768;48.562;13.414;2024-03-08T06:09:22;38.88;;;15.25;;
35648;SDS011;21768;48.562;13.414;2024-03-08T06:11:48;41.78;;;16.15;;
35648;SDS011;21768;48.562;13.414;2024-03-08T06:14:14;39.03;;;15.85;;
35648;SDS011;21768;48.562;13.414;2024-03-08T06:16:44;40.83;;;16.15;;
35648;SDS011;21768;48.562;13.414;2024-03-08T06:19:11;41.55;;;15.45;;
35648;SDS011;21768;48.562;13.414;2024-03-08T06:21:37;39.00;;;16.05;;
35648;SDS011;21768;48.562;13.414;2024-03-08T06:24:03;40.10;;;15.60;;
35648;SDS011;21768;48.562;13.414;2024-03-08T06:26:29;40.95;;;17.58;;
35648;SDS011;21768;48.562;13.414;2024-03-08T06:28:55;55.08;;;23.58;;
35648;SDS011;21768;48.562;13.414;2024-03-08T06:31:21;55.05;;;23.98;;
35648;SDS011;21768;48.562;13.414;2024-03-08T06:33:47;54.67;;;22.02;;
35648;SDS011;21768;48.562;13.414;2024-03-08T06:36:15;54.33;;;24.58;;
35648;SDS011;21768;48.562;13.414;2024-03-08T06:38:44;52.72;;;22.05;;
35648;SDS011;21768;48.562;13.414;2024-03-08T06:41:13;47.65;;;18.73;;
35648;SDS011;21768;48.562;13.414;2024-03-08T06:43:43;41.50;;;16.77;;
35648;SDS011;21768;48.562;13.414;2024-03-08T06:46:10;42.88;;;17.55;;
35648;SDS011;21768;48.562;13.414;2024-03-08T06:48:37;40.97;;;16.42;;
35648;SDS011;21768;48.562;13.414;2024-03-08T06:51:04;44.10;;;18.67;;
35648;SDS011;21768;48.562;13.414;2024-03-08T06:53:30;41.15;;;17.83;;
35648;SDS011;21768;48.562;13.414;2024-03-08T06:55:58;41.20;;;17.50;;
35648;SDS011;21768;48.562;13.414;2024-03-08T06:58:24;37.53;;;16.45;;
35648;SDS011;21768;48.562;13.414;2024-03-08T07:00:50;43.50;;;18.20;;
35648;SDS011;21768;48.562;13.414;2024-03-08T07:03:18;37.28;;;16.98;;
35648;SDS011;21768;48.562;13.414;2024-03-08T07:05:44;37.88;;;17.45;;
35648;SDS011;21768;48.562;13.414;2024-03-08T07:08:09;39.72;;;16.80;;
35648;SDS011;21768;48.562;13.414;2024-03-08T07:10:35;36.72;;;15.80;;
35648;SDS011;21768;48.562;13.414;2024-03-08T07:13:02;40.05;;;15.80;;
35648;SDS011;21768;48.562;13.414;2024-03-08T07:15:28;36.60;;;16.05;;
35648;SDS011;21768;48.562;13.414;2024-03-08T07:17:53;36.40;;;15.20;;
35648;SDS011;21768;48.562;13.414;2024-03-08T07:20:19;36.55;;;15.15;;
35648;SDS011;21768;48.562;13.414;2024-03-08T07:22:46;38.53;;;19.20;;
35648;SDS011;21768;48.562;13.414;2024-03-08T07:25:12;34.75;;;15.23;;
35648;SDS011;21768;48.562;13.414;2024-03-08T07:27:49;36.00;;;15.18;;
35648;SDS011;21768;48.562;13.414;2024-03-08T07:30:22;33.17;;;14.90;;
35648;SDS011;21768;48.562;13.414;2024-03-08T07:33:24;31.73;;;15.18;;
35648;SDS011;21768;48.562;13.414;2024-03-08T07:35:50;33.15;;;14.23;;
35648;SDS011;21768;48.562;13.414;2024-03-08T07:38:15;27.83;;;13.38;;
35648;SDS011;21768;48.562;13.414;2024-03-08T07:40:41;35.95;;;15.02;;
35648;SDS011;21768;48.562;13.414;2024-03-08T07:43:10;29.70;;;13.70;;
35648;SDS011;21768;48.562;13.414;2024-03-08T07:45:36;35.28;;;14.88;;
35648;SDS011;21768;48.562;13.414;2024-03-08T07:48:05;30.83;;;13.68;;
35648;SDS011;21768;48.562;13.414;2024-03-08T07:50:38;27.48;;;13.15;;
35648;SDS011;21768;48.562;13.414;2024-03-08T07:53:05;29.35;;;13.70;;
35648;SDS011;21768;48.562;13.414;2024-03-08T07:55:33;27.92;;;13.40;;
35648;SDS011;21768;48.562;13.414;2024-03-08T07:58:02;28.92;;;13.90;;
35648;SDS011;21768;48.562;13.414;2024-03-08T08:00:28;26.02;;;12.40;;
35648;SDS011;21768;48.562;13.414;2024-03-08T08:02:59;28.15;;;12.90;;
35648;SDS011;21768;48.562;13.414;2024-03-08T08:05:24;24.23;;;11.57;;
35648;SDS011;21768;48.562;13.414;2024-03-08T08:07:50;29.55;;;12.77;;
35648;SDS011;21768;48.562;13.414;2024-03-08T08:10:18;22.13;;;11.57;;
35648;SDS011;21768;48.562;13.414;2024-03-08T08:12:49;26.65;;;12.88;;
35648;SDS011;21768;48.562;13.414;2024-03-08T08:15:16;23.50;;;12.27;;
35648;SDS011;21768;48.562;13.414;2024-03-08T08:17:43;19.55;;;10.60;;
35648;SDS011;21768;48.562;13.414;2024-03-08T08:20:10;20.75;;;10.68;;
35648;SDS011;21768;48.562;13.414;2024-03-08T08:22:38;20.00;;;10.95;;
35648;SDS011;21768;48.562;13.414;2024-03-08T08:25:05;20.25;;;10.85;;
35648;SDS011;21768;48.562;13.414;2024-03-08T08:27:30;20.77;;;10.57;;
35648;SDS011;21768;48.562;13.414;2024-03-08T08:29:58;19.02;;;10.52;;
35648;SDS011;21768;48.562;13.414;2024-03-08T08:32:25;17.98;;;9.98;;
35648;SDS011;21768;48.562;13.414;2024-03-08T08:34:51;18.92;;;10.15;;
35648;SDS011;21768;48.562;13.414;2024-03-08T08:37:17;19.50;;;9.90;;
35648;SDS011;21768;48.562;13.414;2024-03-08T08:39:42;16.30;;;9.38;;
35648;SDS011;21768;48.562;13.414;2024-03-08T08:42:08;16.45;;;9.82;;
35648;SDS011;21768;48.562;13.414;2024-03-08T08:44:35;14.80;;;9.50;;
35648;SDS011;21768;48.562;13.414;2024-03-08T08:47:01;16.50;;;9.52;;
35648;SDS011;21768;48.562;13.414;2024-03-08T08:49:28;14.25;;;9.43;;
35648;SDS011;21768;48.562;13.414;2024-03-08T08:51:55;14.60;;;8.88;;
35648;SDS011;21768;48.562;13.414;2024-03-08T08:54:23;16.50;;;9.25;;
35648;SDS011;21768;48.562;13.414;2024-03-08T08:56:50;15.32;;;9.35;;
35648;SDS011;21768;48.562;13.414;2024-03-08T08:59:15;15.52;;;8.75;;
35648;SDS011;21768;48.562;13.414;2024-03-08T09:01:44;14.73;;;9.40;;
35648;SDS011;21768;48.562;13.414;2024-03-08T09:04:12;12.82;;;8.48;;
35648;SDS011;21768;48.562;13.414;2024-03-08T09:06:37;17.52;;;9.05;;
35648;SDS011;21768;48.562;13.414;2024-03-08T09:09:06;14.00;;;7.88;;
35648;SDS011;21768;48.562;13.414;2024-03-08T09:11:36;15.45;;;8.93;;
35648;SDS011;21768;48.562;13.414;2024-03-08T09:14:03;13.93;;;8.55;;
35648;SDS011;21768;48.562;13.414;2024-03-08T09:16:30;14.05;;;8.23;;
35648;SDS011;21768;48.562;13.414;2024-03-08T09:18:56;13.68;;;8.38;;
35648;SDS011;21768;48.562;13.414;2024-03-08T09:21:22;14.98;;;8.32;;
35648;SDS011;21768;48.562;13.414;2024-03-08T09:23:47;16.48;;;8.35;;
35648;SDS011;21768;48.562;13.414;2024-03-08T09:26:13;15.02;;;8.10;;
35648;SDS011;21768;48.562;13.414;2024-03-08T09:28:40;11.70;;;7.50;;
35648;SDS011;21768;48.562;13.414;2024-03-08T09:31:05;14.23;;;6.68;;
35648;SDS011;21768;48.562;13.414;2024-03-08T09:33:31;10.55;;;6.18;;
35648;SDS011;21768;48.562;13.414;2024-03-08T09:35:56;11.88;;;6.15;;
35648;SDS011;21768;48.562;13.414;2024-03-08T09:38:25;10.15;;;6.30;;
35648;SDS011;21768;48.562;13.414;2024-03-08T09:40:51;14.15;;;7.43;;
35648;SDS011;21768;48.562;13.414;2024-03-08T09:43:18;12.40;;;6.85;;
35648;SDS011;21768;48.562;13.414;2024-03-08T09:45:45;11.45;;;7.22;;
35648;SDS011;21768;48.562;13.414;2024-03-08T09:48:14;10.88;;;6.60;;
35648;SDS011;21768;48.562;13.414;2024-03-08T09:50:42;12.15;;;6.80;;
35648;SDS011;21768;48.562;13.414;2024-03-08T09:53:13;11.38;;;7.10;;
35648;SDS011;21768;48.562;13.414;2024-03-08T09:55:39;10.98;;;6.90;;
35648;SDS011;21768;48.562;13.414;2024-03-08T09:58:12;12.02;;;7.30;;
35648;SDS011;21768;48.562;13.414;2024-03-08T10:00:45;13.25;;;7.28;;
35648;SDS011;21768;48.562;13.414;2024-03-08T10:03:10;11.57;;;7.00;;
35648;SDS011;21768;48.562;13.414;2024-03-08T10:05:36;10.13;;;7.25;;
35648;SDS011;21768;48.562;13.414;2024-03-08T10:08:02;11.30;;;6.97;;
35648;SDS011;21768;48.562;13.414;2024-03-08T10:10:28;11.45;;;7.18;;
35648;SDS011;21768;48.562;13.414;2024-03-08T10:12:54;9.52;;;6.78;;
35648;SDS011;21768;48.562;13.414;2024-03-08T10:15:21;8.98;;;6.28;;
35648;SDS011;21768;48.562;13.414;2024-03-08T10:17:46;9.40;;;6.47;;
35648;SDS011;21768;48.562;13.414;2024-03-08T10:20:16;10.60;;;7.00;;
35648;SDS011;21768;48.562;13.414;2024-03-08T10:22:43;9.75;;;6.22;;
35648;SDS011;21768;48.562;13.414;2024-03-08T10:25:11;8.52;;;5.68;;
35648;SDS011;21768;48.562;13.414;2024-03-08T10:27:40;8.73;;;5.57;;
35648;SDS011;21768;48.562;13.414;2024-03-08T10:30:10;7.05;;;5.18;;
35648;SDS011;21768;48.562;13.414;2024-03-08T10:32:39;6.63;;;4.80;;
35648;SDS011;21768;48.562;13.414;2024-03-08T10:35:07;9.77;;;5.57;;
35648;SDS011;21768;48.562;13.414;2024-03-08T10:37:33;9.10;;;5.53;;
35648;SDS011;21768;48.562;13.414;2024-03-08T10:40:09;7.78;;;5.20;;
35648;SDS011;21768;48.562;13.414;2024-03-08T10:42:43;8.63;;;5.63;;
35648;SDS011;21768;48.562;13.414;2024-03-08T10:50:49;8.43;;;5.50;;
35648;SDS011;21768;48.562;13.414;2024-03-08T10:53:17;7.78;;;5.55;;
35648;SDS011;21768;48.562;13.414;2024-03-08T10:55:47;9.38;;;5.90;;
35648;SDS011;21768;48.562;13.414;2024-03-08T10:58:14;8.82;;;6.22;;
35648;SDS011;21768;48.562;13.414;2024-03-08T11:00:41;9.23;;;6.25;;
35648;SDS011;21768;48.562;13.414;2024-03-08T11:03:06;10.70;;;6.03;;
35648;SDS011;21768;48.562;13.414;2024-03-08T11:08:03;9.48;;;6.03;;
35648;SDS011;21768;48.562;13.414;2024-03-08T11:13:32;9.15;;;6.10;;
35648;SDS011;21768;48.562;13.414;2024-03-08T11:16:50;9.15;;;6.13;;
35648;SDS011;21768;48.562;13.414;2024-03-08T11:18:54;10.90;;;6.47;;
35648;SDS011;21768;48.562;13.414;2024-03-08T11:21:30;8.43;;;5.90;;
35648;SDS011;21768;48.562;13.414;2024-03-08T11:24:13;9.15;;;6.03;;
35648;SDS011;21768;48.562;13.414;2024-03-08T11:26:41;11.35;;;6.38;;
35648;SDS011;21768;48.562;13.414;2024-03-08T11:32:08;8.93;;;5.90;;
35648;SDS011;21768;48.562;13.414;2024-03-08T11:34:41;8.98;;;5.25;;
35648;SDS011;21768;48.562;13.414;2024-03-08T11:37:11;8.10;;;5.38;;
35648;SDS011;21768;48.562;13.414;2024-03-08T11:39:39;10.32;;;5.60;;
35648;SDS011;21768;48.562;13.414;2024-03-08T11:42:05;6.72;;;4.90;;
35648;SDS011;21768;48.562;13.414;2024-03-08T11:44:31;8.05;;;5.38;;
35648;SDS011;21768;48.562;13.414;2024-03-08T11:46:57;8.27;;;4.88;;
35648;SDS011;21768;48.562;13.414;2024-03-08T11:49:22;12.73;;;4.82;;
35648;SDS011;21768;48.562;13.414;2024-03-08T11:51:51;7.20;;;4.88;;
35648;SDS011;21768;48.562;13.414;2024-03-08T11:54:18;8.30;;;5.75;;
35648;SDS011;21768;48.562;13.414;2024-03-08T11:56:45;8.13;;;4.85;;
35648;SDS011;21768;48.562;13.414;2024-03-08T11:59:13;6.82;;;4.68;;
35648;SDS011;21768;48.562;13.414;2024-03-08T12:01:39;8.55;;;5.90;;
35648;SDS011;21768;48.562;13.414;2024-03-08T12:04:05;7.80;;;5.50;;
35648;SDS011;21768;48.562;13.414;2024-03-08T12:06:37;6.18;;;4.63;;
35648;SDS011;21768;48.562;13.414;2024-03-08T12:09:07;6.43;;;4.38;;
35648;SDS011;21768;48.562;13.414;2024-03-08T12:11:34;8.45;;;4.45;;
35648;SDS011;21768;48.562;13.414;2024-03-08T12:14:01;6.22;;;3.97;;
35648;SDS011;21768;48.562;13.414;2024-03-08T12:16:26;8.98;;;4.40;;
35648;SDS011;21768;48.562;13.414;2024-03-08T12:18:52;5.65;;;3.88;;
35648;SDS011;21768;48.562;13.414;2024-03-08T12:21:19;7.55;;;4.80;;
35648;SDS011;21768;48.562;13.414;2024-03-08T12:26:38;6.78;;;4.25;;
35648;SDS011;21768;48.562;13.414;2024-03-08T12:29:15;8.52;;;4.78;;
35648;SDS011;21768;48.562;13.414;2024-03-08T12:31:43;6.55;;;4.40;;
35648;SDS011;21768;48.562;13.414;2024-03-08T12:34:08;6.15;;;3.50;;
35648;SDS011;21768;48.562;13.414;2024-03-08T12:36:35;7.30;;;4.18;;
35648;SDS011;21768;48.562;13.414;2024-03-08T12:39:01;6.40;;;3.72;;
35648;SDS011;21768;48.562;13.414;2024-03-08T12:41:29;6.82;;;3.85;;
35648;SDS011;21768;48.562;13.414;2024-03-08T12:43:54;8.57;;;4.00;;
35648;SDS011;21768;48.562;13.414;2024-03-08T12:46:21;6.40;;;3.88;;
35648;SDS011;21768;48.562;13.414;2024-03-08T12:48:51;5.80;;;3.80;;
35648;SDS011;21768;48.562;13.414;2024-03-08T12:51:19;6.85;;;3.95;;
35648;SDS011;21768;48.562;13.414;2024-03-08T12:53:46;7.45;;;4.28;;
35648;SDS011;21768;48.562;13.414;2024-03-08T12:56:12;7.65;;;3.95;;
35648;SDS011;21768;48.562;13.414;2024-03-08T12:58:39;8.18;;;3.90;;
35648;SDS011;21768;48.562;13.414;2024-03-08T13:01:06;7.47;;;4.50;;
35648;SDS011;21768;48.562;13.414;2024-03-08T13:03:34;5.68;;;3.65;;
35648;SDS011;21768;48.562;13.414;2024-03-08T13:06:01;6.80;;;4.28;;
35648;SDS011;21768;48.562;13.414;2024-03-08T13:08:28;5.75;;;3.78;;
35648;SDS011;21768;48.562;13.414;2024-03-08T13:10:54;7.60;;;3.92;;
35648;SDS011;21768;48.562;13.414;2024-03-08T13:13:20;6.57;;;3.90;;
35648;SDS011;21768;48.562;13.414;2024-03-08T13:15:46;6.88;;;4.30;;
35648;SDS011;21768;48.562;13.414;2024-03-08T13:18:11;6.63;;;3.92;;
35648;SDS011;21768;48.562;13.414;2024-03-08T13:20:38;10.07;;;4.30;;
35648;SDS011;21768;48.562;13.414;2024-03-08T13:23:04;10.48;;;3.88;;
35648;SDS011;21768;48.562;13.414;2024-03-08T13:25:30;7.38;;;4.57;;
35648;SDS011;21768;48.562;13.414;2024-03-08T13:27:56;7.70;;;4.68;;
35648;SDS011;21768;48.562;13.414;2024-03-08T13:30:24;6.15;;;3.90;;
35648;SDS011;21768;48.562;13.414;2024-03-08T13:32:52;6.55;;;4.18;;
35648;SDS011;21768;48.562;13.414;2024-03-08T13:35:19;7.05;;;4.03;;
35648;SDS011;21768;48.562;13.414;2024-03-08T13:37:51;7.15;;;4.35;;
35648;SDS011;21768;48.562;13.414;2024-03-08T13:40:17;7.75;;;4.18;;
35648;SDS011;21768;48.562;13.414;2024-03-08T13:42:48;6.05;;;3.88;;
35648;SDS011;21768;48.562;13.414;2024-03-08T13:45:14;7.80;;;4.70;;
35648;SDS011;21768;48.562;13.414;2024-03-08T13:47:43;6.10;;;4.07;;
35648;SDS011;21768;48.562;13.414;2024-03-08T13:50:10;6.22;;;3.90;;
35648;SDS011;21768;48.562;13.414;2024-03-08T13:52:46;5.35;;;3.63;;
35648;SDS011;21768;48.562;13.414;2024-03-08T13:55:11;5.68;;;3.60;;
35648;SDS011;21768;48.562;13.414;2024-03-08T13:57:37;4.80;;;3.63;;
35648;SDS011;21768;48.562;13.414;2024-03-08T14:00:03;19.40;;;10.40;;
35648;SDS011;21768;48.562;13.414;2024-03-08T14:02:32;19.00;;;11.68;;
35648;SDS011;21768;48.562;13.414;2024-03-08T14:04:59;5.55;;;3.90;;
35648;SDS011;21768;48.562;13.414;2024-03-08T14:07:26;55.40;;;28.60;;
35648;SDS011;21768;48.562;13.414;2024-03-08T14:09:54;6.78;;;4.22;;
35648;SDS011;21768;48.562;13.414;2024-03-08T14:12:20;5.43;;;4.20;;
35648;SDS011;21768;48.562;13.414;2024-03-08T14:14:46;4.95;;;3.60;;
35648;SDS011;21768;48.562;13.414;2024-03-08T14:17:11;4.28;;;2.90;;
35648;SDS011;21768;48.562;13.414;2024-03-08T14:19:42;4.65;;;3.30;;
35648;SDS011;21768;48.562;13.414;2024-03-08T14:22:08;4.50;;;2.92;;
35648;SDS011;21768;48.562;13.414;2024-03-08T14:24:37;4.72;;;3.30;;
35648;SDS011;21768;48.562;13.414;2024-03-08T14:27:02;3.88;;;3.25;;
35648;SDS011;21768;48.562;13.414;2024-03-08T14:29:28;6.60;;;3.35;;
35648;SDS011;21768;48.562;13.414;2024-03-08T14:31:57;3.20;;;2.72;;
35648;SDS011;21768;48.562;13.414;2024-03-08T14:34:25;4.65;;;2.90;;